sensor_id;sensor_type;location;lat;lon;timestamp;temperature;humidity
20418;DHT22;10368;51.436;6.774;2023-11-19T00:00:09;10.20;99.90
20418;DHT22;10368;51.436;6.774;2023-11-19T00:07:36;10.30;99.90
20418;DHT22;10368;51.436;6.774;2023-11-19T00:10:03;10.50;99.90
20418;DHT22;10368;51.436;6.774;2023-11-19T00:12:38;10.50;99.90
20418;DHT22;10368;51.436;6.774;2023-11-19T00:15:06;10.60;99.90
20418;DHT22;10368;51.436;6.774;2023-11-19T00:17:39;10.60;99.90
20418;DHT22;10368;51.436;6.774;2023-11-19T00:20:14;10.60;99.90
20418;DHT22;10368;51.436;6.774;2023-11-19T00:22:43;10.70;99.90
20418;DHT22;10368;51.436;6.774;2023-11-19T00:25:13;10.70;99.90
20418;DHT22;10368;51.436;6.774;2023-11-19T00:27:40;10.80;99.90
20418;DHT22;10368;51.436;6.774;2023-11-19T00:30:11;10.90;99.90
20418;DHT22;10368;51.436;6.774;2023-11-19T00:37:37;11.00;99.90
20418;DHT22;10368;51.436;6.774;2023-11-19T00:47:28;11.30;99.90
20418;DHT22;10368;51.436;6.774;2023-11-19T00:49:55;11.70;99.90
20418;DHT22;10368;51.436;6.774;2023-11-19T00:52:22;11.70;99.90
20418;DHT22;10368;51.436;6.774;2023-11-19T00:54:49;11.70;99.90
20418;DHT22;10368;51.436;6.774;2023-11-19T00:57:16;11.80;99.90
20418;DHT22;10368;51.436;6.774;2023-11-19T00:59:43;11.70;99.90
20418;DHT22;10368;51.436;6.774;2023-11-19T01:02:10;11.80;99.90
20418;DHT22;10368;51.436;6.774;2023-11-19T01:04:37;11.80;99.90
20418;DHT22;10368;51.436;6.774;2023-11-19T01:07:05;11.80;99.90
20418;DHT22;10368;51.436;6.774;2023-11-19T01:09:41;11.80;99.90
20418;DHT22;10368;51.436;6.774;2023-11-19T01:12:09;11.80;99.90
20418;DHT22;10368;51.436;6.774;2023-11-19T01:14:37;11.80;99.90
20418;DHT22;10368;51.436;6.774;2023-11-19T01:17:06;11.90;99.90
20418;DHT22;10368;51.436;6.774;2023-11-19T01:19:33;11.90;99.90
20418;DHT22;10368;51.436;6.774;2023-11-19T01:22:00;11.90;99.90
20418;DHT22;10368;51.436;6.774;2023-11-19T01:24:27;11.90;99.90
20418;DHT22;10368;51.436;6.774;2023-11-19T01:26:55;11.90;99.90
20418;DHT22;10368;51.436;6.774;2023-11-19T01:29:24;11.90;99.90
20418;DHT22;10368;51.436;6.774;2023-11-19T01:31:51;11.90;99.90
20418;DHT22;10368;51.436;6.774;2023-11-19T01:34:18;12.00;99.90
20418;DHT22;10368;51.436;6.774;2023-11-19T01:36:47;12.00;99.90
20418;DHT22;10368;51.436;6.774;2023-11-19T01:39:16;12.00;99.90
20418;DHT22;10368;51.436;6.774;2023-11-19T01:41:43;12.00;99.90
20418;DHT22;10368;51.436;6.774;2023-11-19T01:44:10;12.10;99.90
20418;DHT22;10368;51.436;6.774;2023-11-19T01:46:41;12.10;99.90
20418;DHT22;10368;51.436;6.774;2023-11-19T01:49:09;12.00;99.90
20418;DHT22;10368;51.436;6.774;2023-11-19T01:51:36;12.10;99.90
20418;DHT22;10368;51.436;6.774;2023-11-19T01:54:03;12.10;99.90
20418;DHT22;10368;51.436;6.774;2023-11-19T01:56:31;12.10;99.90
20418;DHT22;10368;51.436;6.774;2023-11-19T01:58:59;12.10;99.90
20418;DHT22;10368;51.436;6.774;2023-11-19T02:01:27;12.10;99.90
20418;DHT22;10368;51.436;6.774;2023-11-19T02:03:54;12.20;99.90
20418;DHT22;10368;51.436;6.774;2023-11-19T02:06:23;12.20;99.90
20418;DHT22;10368;51.436;6.774;2023-11-19T02:08:50;12.20;99.90
20418;DHT22;10368;51.436;6.774;2023-11-19T02:11:17;12.30;99.90
20418;DHT22;10368;51.436;6.774;2023-11-19T02:13:44;12.20;99.90
20418;DHT22;10368;51.436;6.774;2023-11-19T02:16:11;12.30;99.90
20418;DHT22;10368;51.436;6.774;2023-11-19T02:18:38;12.20;99.90
20418;DHT22;10368;51.436;6.774;2023-11-19T02:21:05;12.20;99.90
20418;DHT22;10368;51.436;6.774;2023-11-19T02:23:32;12.20;99.90
20418;DHT22;10368;51.436;6.774;2023-11-19T02:26:01;12.30;99.90
20418;DHT22;10368;51.436;6.774;2023-11-19T02:28:48;12.20;99.90
20418;DHT22;10368;51.436;6.774;2023-11-19T02:31:16;12.30;99.90
20418;DHT22;10368;51.436;6.774;2023-11-19T02:33:44;12.30;99.90
20418;DHT22;10368;51.436;6.774;2023-11-19T02:36:11;12.30;99.90
20418;DHT22;10368;51.436;6.774;2023-11-19T02:38:38;12.30;99.90
20418;DHT22;10368;51.436;6.774;2023-11-19T02:41:05;12.30;99.90
20418;DHT22;10368;51.436;6.774;2023-11-19T02:43:33;12.40;99.90
20418;DHT22;10368;51.436;6.774;2023-11-19T02:46:04;12.40;99.90
20418;DHT22;10368;51.436;6.774;2023-11-19T02:48:37;12.40;99.90
20418;DHT22;10368;51.436;6.774;2023-11-19T02:51:05;12.50;99.90
20418;DHT22;10368;51.436;6.774;2023-11-19T02:53:36;12.50;99.90
20418;DHT22;10368;51.436;6.774;2023-11-19T02:56:07;12.50;99.90
20418;DHT22;10368;51.436;6.774;2023-11-19T02:58:52;12.60;99.90
20418;DHT22;10368;51.436;6.774;2023-11-19T03:01:26;12.60;99.90
20418;DHT22;10368;51.436;6.774;2023-11-19T03:03:58;12.60;99.90
20418;DHT22;10368;51.436;6.774;2023-11-19T03:06:25;12.60;99.90
20418;DHT22;10368;51.436;6.774;2023-11-19T03:08:54;12.60;99.90
20418;DHT22;10368;51.436;6.774;2023-11-19T03:11:21;12.60;99.90
20418;DHT22;10368;51.436;6.774;2023-11-19T03:13:48;12.60;99.90
20418;DHT22;10368;51.436;6.774;2023-11-19T03:16:15;12.60;99.90
20418;DHT22;10368;51.436;6.774;2023-11-19T03:18:44;12.60;99.90
20418;DHT22;10368;51.436;6.774;2023-11-19T03:21:11;12.60;99.90
20418;DHT22;10368;51.436;6.774;2023-11-19T03:23:39;12.60;99.90
20418;DHT22;10368;51.436;6.774;2023-11-19T03:26:07;12.60;99.90
20418;DHT22;10368;51.436;6.774;2023-11-19T03:28:34;12.60;99.90
20418;DHT22;10368;51.436;6.774;2023-11-19T03:31:04;12.70;99.90
20418;DHT22;10368;51.436;6.774;2023-11-19T03:33:35;12.60;99.90
20418;DHT22;10368;51.436;6.774;2023-11-19T03:36:02;12.60;99.90
20418;DHT22;10368;51.436;6.774;2023-11-19T03:38:29;12.70;99.90
20418;DHT22;10368;51.436;6.774;2023-11-19T03:40:56;12.60;99.90
20418;DHT22;10368;51.436;6.774;2023-11-19T03:43:22;12.60;99.90
20418;DHT22;10368;51.436;6.774;2023-11-19T03:45:49;12.60;99.90
20418;DHT22;10368;51.436;6.774;2023-11-19T03:48:16;12.50;99.90
20418;DHT22;10368;51.436;6.774;2023-11-19T03:50:43;12.60;99.90
20418;DHT22;10368;51.436;6.774;2023-11-19T03:53:11;12.60;99.90
20418;DHT22;10368;51.436;6.774;2023-11-19T03:55:38;12.50;99.90
20418;DHT22;10368;51.436;6.774;2023-11-19T03:58:05;12.50;99.90
20418;DHT22;10368;51.436;6.774;2023-11-19T04:00:32;12.60;99.90
20418;DHT22;10368;51.436;6.774;2023-11-19T04:02:59;12.60;99.90
20418;DHT22;10368;51.436;6.774;2023-11-19T04:05:27;12.60;99.90
20418;DHT22;10368;51.436;6.774;2023-11-19T04:07:54;12.40;99.90
20418;DHT22;10368;51.436;6.774;2023-11-19T04:10:21;12.50;99.90
20418;DHT22;10368;51.436;6.774;2023-11-19T04:12:49;12.50;99.90
20418;DHT22;10368;51.436;6.774;2023-11-19T04:15:16;12.50;99.90
20418;DHT22;10368;51.436;6.774;2023-11-19T04:17:43;12.50;99.90
20418;DHT22;10368;51.436;6.774;2023-11-19T04:20:11;12.50;99.90
20418;DHT22;10368;51.436;6.774;2023-11-19T04:22:40;12.40;99.90
20418;DHT22;10368;51.436;6.774;2023-11-19T04:25:07;12.40;99.90
20418;DHT22;10368;51.436;6.774;2023-11-19T04:27:35;12.50;99.90
20418;DHT22;10368;51.436;6.774;2023-11-19T04:30:01;12.50;99.90
20418;DHT22;10368;51.436;6.774;2023-11-19T04:32:30;12.50;99.90
20418;DHT22;10368;51.436;6.774;2023-11-19T04:34:57;12.60;99.90
20418;DHT22;10368;51.436;6.774;2023-11-19T04:37:24;12.60;99.90
20418;DHT22;10368;51.436;6.774;2023-11-19T04:39:51;12.60;99.90
20418;DHT22;10368;51.436;6.774;2023-11-19T04:42:18;12.50;99.90
20418;DHT22;10368;51.436;6.774;2023-11-19T04:44:46;12.40;99.90
20418;DHT22;10368;51.436;6.774;2023-11-19T04:47:13;12.40;99.90
20418;DHT22;10368;51.436;6.774;2023-11-19T04:49:41;12.40;99.90
20418;DHT22;10368;51.436;6.774;2023-11-19T04:52:11;12.50;99.90
20418;DHT22;10368;51.436;6.774;2023-11-19T04:54:42;12.50;99.90
20418;DHT22;10368;51.436;6.774;2023-11-19T04:57:10;12.50;99.90
20418;DHT22;10368;51.436;6.774;2023-11-19T04:59:40;12.50;99.90
20418;DHT22;10368;51.436;6.774;2023-11-19T05:02:08;12.50;99.90
20418;DHT22;10368;51.436;6.774;2023-11-19T05:04:35;12.50;99.90
20418;DHT22;10368;51.436;6.774;2023-11-19T05:07:04;12.40;99.90
20418;DHT22;10368;51.436;6.774;2023-11-19T05:09:31;12.40;99.90
20418;DHT22;10368;51.436;6.774;2023-11-19T05:11:58;12.40;99.90
20418;DHT22;10368;51.436;6.774;2023-11-19T05:14:25;12.40;99.90
20418;DHT22;10368;51.436;6.774;2023-11-19T05:16:52;12.40;99.90
20418;DHT22;10368;51.436;6.774;2023-11-19T05:19:19;12.40;99.90
20418;DHT22;10368;51.436;6.774;2023-11-19T05:21:46;12.30;99.90
20418;DHT22;10368;51.436;6.774;2023-11-19T05:24:13;12.30;99.90
20418;DHT22;10368;51.436;6.774;2023-11-19T05:26:40;12.30;99.90
20418;DHT22;10368;51.436;6.774;2023-11-19T05:29:07;12.40;99.90
20418;DHT22;10368;51.436;6.774;2023-11-19T05:31:34;12.40;99.90
20418;DHT22;10368;51.436;6.774;2023-11-19T05:34:03;12.40;99.90
20418;DHT22;10368;51.436;6.774;2023-11-19T05:36:31;12.40;99.90
20418;DHT22;10368;51.436;6.774;2023-11-19T05:38:57;12.40;99.90
20418;DHT22;10368;51.436;6.774;2023-11-19T05:41:24;12.40;99.90
20418;DHT22;10368;51.436;6.774;2023-11-19T05:43:51;12.50;99.90
20418;DHT22;10368;51.436;6.774;2023-11-19T05:46:18;12.40;99.90
20418;DHT22;10368;51.436;6.774;2023-11-19T05:48:47;12.50;99.90
20418;DHT22;10368;51.436;6.774;2023-11-19T05:51:14;12.40;99.90
20418;DHT22;10368;51.436;6.774;2023-11-19T05:53:42;12.40;99.90
20418;DHT22;10368;51.436;6.774;2023-11-19T05:56:09;12.40;99.90
20418;DHT22;10368;51.436;6.774;2023-11-19T05:58:37;12.40;99.90
20418;DHT22;10368;51.436;6.774;2023-11-19T06:01:05;12.40;99.90
20418;DHT22;10368;51.436;6.774;2023-11-19T06:03:34;12.40;99.90
20418;DHT22;10368;51.436;6.774;2023-11-19T06:06:01;12.30;99.90
20418;DHT22;10368;51.436;6.774;2023-11-19T06:08:28;12.30;99.90
20418;DHT22;10368;51.436;6.774;2023-11-19T06:10:56;12.40;99.90
20418;DHT22;10368;51.436;6.774;2023-11-19T06:13:23;12.40;99.90
20418;DHT22;10368;51.436;6.774;2023-11-19T06:15:51;12.30;99.90
20418;DHT22;10368;51.436;6.774;2023-11-19T06:18:18;12.30;99.90
20418;DHT22;10368;51.436;6.774;2023-11-19T06:20:47;12.20;99.90
20418;DHT22;10368;51.436;6.774;2023-11-19T06:23:14;12.20;99.90
20418;DHT22;10368;51.436;6.774;2023-11-19T06:25:41;12.20;99.90
20418;DHT22;10368;51.436;6.774;2023-11-19T06:28:08;12.30;99.90
20418;DHT22;10368;51.436;6.774;2023-11-19T06:30:35;12.20;99.90
20418;DHT22;10368;51.436;6.774;2023-11-19T06:33:03;12.30;99.90
20418;DHT22;10368;51.436;6.774;2023-11-19T06:35:30;12.20;99.90
20418;DHT22;10368;51.436;6.774;2023-11-19T06:38:03;12.20;99.90
20418;DHT22;10368;51.436;6.774;2023-11-19T06:40:34;12.10;99.90
20418;DHT22;10368;51.436;6.774;2023-11-19T06:43:04;12.10;99.90
20418;DHT22;10368;51.436;6.774;2023-11-19T06:45:31;12.10;99.90
20418;DHT22;10368;51.436;6.774;2023-11-19T06:48:01;12.20;99.90
20418;DHT22;10368;51.436;6.774;2023-11-19T06:50:30;12.20;99.90
20418;DHT22;10368;51.436;6.774;2023-11-19T06:52:57;12.20;99.90
20418;DHT22;10368;51.436;6.774;2023-11-19T06:55:24;12.10;99.90
20418;DHT22;10368;51.436;6.774;2023-11-19T06:57:51;12.10;99.90
20418;DHT22;10368;51.436;6.774;2023-11-19T07:00:18;12.10;99.90
20418;DHT22;10368;51.436;6.774;2023-11-19T07:02:45;12.00;99.90
20418;DHT22;10368;51.436;6.774;2023-11-19T07:05:12;12.00;99.90
20418;DHT22;10368;51.436;6.774;2023-11-19T07:07:40;12.00;99.90
20418;DHT22;10368;51.436;6.774;2023-11-19T07:10:07;12.00;99.90
20418;DHT22;10368;51.436;6.774;2023-11-19T07:12:36;12.00;99.90
20418;DHT22;10368;51.436;6.774;2023-11-19T07:15:03;12.00;99.90
20418;DHT22;10368;51.436;6.774;2023-11-19T07:17:31;11.90;99.90
20418;DHT22;10368;51.436;6.774;2023-11-19T07:19:58;11.90;99.90
20418;DHT22;10368;51.436;6.774;2023-11-19T07:22:26;11.90;99.90
20418;DHT22;10368;51.436;6.774;2023-11-19T07:24:56;11.90;99.90
20418;DHT22;10368;51.436;6.774;2023-11-19T07:27:23;11.90;99.90
20418;DHT22;10368;51.436;6.774;2023-11-19T07:29:51;11.90;99.90
20418;DHT22;10368;51.436;6.774;2023-11-19T07:32:18;11.90;99.90
20418;DHT22;10368;51.436;6.774;2023-11-19T07:34:45;11.80;99.90
20418;DHT22;10368;51.436;6.774;2023-11-19T07:37:12;11.90;99.90
20418;DHT22;10368;51.436;6.774;2023-11-19T07:39:39;11.90;99.90
20418;DHT22;10368;51.436;6.774;2023-11-19T07:42:08;11.90;99.90
20418;DHT22;10368;51.436;6.774;2023-11-19T07:44:36;11.90;99.90
20418;DHT22;10368;51.436;6.774;2023-11-19T07:47:04;11.80;99.90
20418;DHT22;10368;51.436;6.774;2023-11-19T07:49:31;11.80;99.90
20418;DHT22;10368;51.436;6.774;2023-11-19T07:51:58;11.80;99.90
20418;DHT22;10368;51.436;6.774;2023-11-19T07:54:25;11.80;99.90
20418;DHT22;10368;51.436;6.774;2023-11-19T07:56:52;11.80;99.90
20418;DHT22;10368;51.436;6.774;2023-11-19T07:59:19;11.80;99.90
20418;DHT22;10368;51.436;6.774;2023-11-19T08:01:46;11.80;99.90
20418;DHT22;10368;51.436;6.774;2023-11-19T08:04:14;11.80;99.90
20418;DHT22;10368;51.436;6.774;2023-11-19T08:06:41;11.80;99.90
20418;DHT22;10368;51.436;6.774;2023-11-19T08:09:08;11.80;99.90
20418;DHT22;10368;51.436;6.774;2023-11-19T08:11:41;11.80;99.90
20418;DHT22;10368;51.436;6.774;2023-11-19T08:14:08;11.90;99.90
20418;DHT22;10368;51.436;6.774;2023-11-19T08:16:35;11.80;99.90
20418;DHT22;10368;51.436;6.774;2023-11-19T08:19:04;11.90;99.90
20418;DHT22;10368;51.436;6.774;2023-11-19T08:21:31;11.90;99.90
20418;DHT22;10368;51.436;6.774;2023-11-19T08:23:59;11.90;99.90
20418;DHT22;10368;51.436;6.774;2023-11-19T08:26:26;11.90;99.90
20418;DHT22;10368;51.436;6.774;2023-11-19T08:28:52;11.90;99.90
20418;DHT22;10368;51.436;6.774;2023-11-19T08:31:19;12.00;99.90
20418;DHT22;10368;51.436;6.774;2023-11-19T08:33:46;11.90;99.90
20418;DHT22;10368;51.436;6.774;2023-11-19T08:36:16;12.00;99.90
20418;DHT22;10368;51.436;6.774;2023-11-19T08:38:44;12.00;99.90
20418;DHT22;10368;51.436;6.774;2023-11-19T08:41:11;12.00;99.90
20418;DHT22;10368;51.436;6.774;2023-11-19T08:43:38;12.00;99.90
20418;DHT22;10368;51.436;6.774;2023-11-19T08:46:10;12.00;99.90
20418;DHT22;10368;51.436;6.774;2023-11-19T08:48:38;12.10;99.90
20418;DHT22;10368;51.436;6.774;2023-11-19T08:51:05;12.00;99.90
20418;DHT22;10368;51.436;6.774;2023-11-19T08:53:32;12.00;99.90
20418;DHT22;10368;51.436;6.774;2023-11-19T08:55:59;12.10;99.90
20418;DHT22;10368;51.436;6.774;2023-11-19T08:58:27;12.10;99.90
20418;DHT22;10368;51.436;6.774;2023-11-19T09:00:54;12.10;99.90
20418;DHT22;10368;51.436;6.774;2023-11-19T09:03:21;12.20;99.90
20418;DHT22;10368;51.436;6.774;2023-11-19T09:05:48;12.20;99.90
20418;DHT22;10368;51.436;6.774;2023-11-19T09:08:15;12.30;99.90
20418;DHT22;10368;51.436;6.774;2023-11-19T09:10:42;12.30;99.90
20418;DHT22;10368;51.436;6.774;2023-11-19T09:13:09;12.30;99.90
20418;DHT22;10368;51.436;6.774;2023-11-19T09:15:36;12.40;99.90
20418;DHT22;10368;51.436;6.774;2023-11-19T09:18:03;12.40;99.90
20418;DHT22;10368;51.436;6.774;2023-11-19T09:20:31;12.40;99.90
20418;DHT22;10368;51.436;6.774;2023-11-19T09:23:05;12.40;99.90
20418;DHT22;10368;51.436;6.774;2023-11-19T09:25:33;12.50;99.90
20418;DHT22;10368;51.436;6.774;2023-11-19T09:28:03;12.50;99.90
20418;DHT22;10368;51.436;6.774;2023-11-19T09:30:30;12.50;99.90
20418;DHT22;10368;51.436;6.774;2023-11-19T09:33:01;12.60;99.90
20418;DHT22;10368;51.436;6.774;2023-11-19T09:35:28;12.60;99.90
20418;DHT22;10368;51.436;6.774;2023-11-19T09:37:55;12.60;99.90
20418;DHT22;10368;51.436;6.774;2023-11-19T09:40:22;12.60;99.90
20418;DHT22;10368;51.436;6.774;2023-11-19T09:42:49;12.60;99.90
20418;DHT22;10368;51.436;6.774;2023-11-19T09:45:16;12.70;99.90
20418;DHT22;10368;51.436;6.774;2023-11-19T09:47:46;12.70;99.90
20418;DHT22;10368;51.436;6.774;2023-11-19T09:50:19;12.80;99.90
20418;DHT22;10368;51.436;6.774;2023-11-19T09:52:47;12.80;99.90
20418;DHT22;10368;51.436;6.774;2023-11-19T09:55:14;12.80;99.90
20418;DHT22;10368;51.436;6.774;2023-11-19T09:57:42;12.90;99.90
20418;DHT22;10368;51.436;6.774;2023-11-19T10:00:13;12.90;99.90
20418;DHT22;10368;51.436;6.774;2023-11-19T10:02:43;12.90;99.90
20418;DHT22;10368;51.436;6.774;2023-11-19T10:05:14;12.90;99.90
20418;DHT22;10368;51.436;6.774;2023-11-19T10:07:42;12.90;99.90
20418;DHT22;10368;51.436;6.774;2023-11-19T10:10:09;12.90;99.90
20418;DHT22;10368;51.436;6.774;2023-11-19T10:12:40;12.90;99.90
20418;DHT22;10368;51.436;6.774;2023-11-19T10:15:24;12.90;99.90
20418;DHT22;10368;51.436;6.774;2023-11-19T10:17:56;12.90;99.90
20418;DHT22;10368;51.436;6.774;2023-11-19T10:20:23;12.90;99.90
20418;DHT22;10368;51.436;6.774;2023-11-19T10:22:54;13.00;99.90
20418;DHT22;10368;51.436;6.774;2023-11-19T10:25:26;13.00;99.90
20418;DHT22;10368;51.436;6.774;2023-11-19T10:27:53;13.00;99.90
20418;DHT22;10368;51.436;6.774;2023-11-19T10:30:28;13.10;99.90
20418;DHT22;10368;51.436;6.774;2023-11-19T10:33:11;13.00;99.90
20418;DHT22;10368;51.436;6.774;2023-11-19T10:35:56;13.10;99.90
20418;DHT22;10368;51.436;6.774;2023-11-19T10:40:55;13.40;99.90
20418;DHT22;10368;51.436;6.774;2023-11-19T10:43:23;13.40;99.90
20418;DHT22;10368;51.436;6.774;2023-11-19T10:45:50;13.50;99.90
20418;DHT22;10368;51.436;6.774;2023-11-19T10:48:18;13.50;99.90
20418;DHT22;10368;51.436;6.774;2023-11-19T10:50:46;13.60;99.90
20418;DHT22;10368;51.436;6.774;2023-11-19T10:53:17;13.70;99.90
20418;DHT22;10368;51.436;6.774;2023-11-19T10:55:47;13.60;99.90
20418;DHT22;10368;51.436;6.774;2023-11-19T10:58:16;13.60;99.90
20418;DHT22;10368;51.436;6.774;2023-11-19T11:00:56;13.60;99.90
20418;DHT22;10368;51.436;6.774;2023-11-19T11:03:31;13.60;99.90
20418;DHT22;10368;51.436;6.774;2023-11-19T11:05:59;13.70;99.90
20418;DHT22;10368;51.436;6.774;2023-11-19T11:08:30;13.70;99.90
20418;DHT22;10368;51.436;6.774;2023-11-19T11:10:57;13.90;99.90
20418;DHT22;10368;51.436;6.774;2023-11-19T11:13:26;14.00;99.90
20418;DHT22;10368;51.436;6.774;2023-11-19T11:18:25;13.80;99.90
20418;DHT22;10368;51.436;6.774;2023-11-19T11:21:03;13.90;99.90
20418;DHT22;10368;51.436;6.774;2023-11-19T11:26:48;13.80;99.90
20418;DHT22;10368;51.436;6.774;2023-11-19T11:29:21;13.90;99.90
20418;DHT22;10368;51.436;6.774;2023-11-19T11:32:32;14.00;99.90
20418;DHT22;10368;51.436;6.774;2023-11-19T11:35:22;14.10;99.90
20418;DHT22;10368;51.436;6.774;2023-11-19T11:37:59;14.00;99.90
20418;DHT22;10368;51.436;6.774;2023-11-19T11:40:27;13.90;99.90
20418;DHT22;10368;51.436;6.774;2023-11-19T11:42:54;13.80;99.90
20418;DHT22;10368;51.436;6.774;2023-11-19T11:45:36;14.00;99.90
20418;DHT22;10368;51.436;6.774;2023-11-19T11:48:09;13.90;99.90
20418;DHT22;10368;51.436;6.774;2023-11-19T11:50:55;13.90;99.90
20418;DHT22;10368;51.436;6.774;2023-11-19T11:53:26;13.70;99.90
20418;DHT22;10368;51.436;6.774;2023-11-19T11:55:54;14.20;99.90
20418;DHT22;10368;51.436;6.774;2023-11-19T12:00:57;14.20;99.90
20418;DHT22;10368;51.436;6.774;2023-11-19T12:03:27;14.20;99.90
20418;DHT22;10368;51.436;6.774;2023-11-19T12:05:55;14.20;99.90
20418;DHT22;10368;51.436;6.774;2023-11-19T12:08:26;14.10;99.90
20418;DHT22;10368;51.436;6.774;2023-11-19T12:10:55;14.40;99.90
20418;DHT22;10368;51.436;6.774;2023-11-19T12:13:42;14.30;99.90
20418;DHT22;10368;51.436;6.774;2023-11-19T12:16:10;14.20;99.90
20418;DHT22;10368;51.436;6.774;2023-11-19T12:18:39;14.20;99.90
20418;DHT22;10368;51.436;6.774;2023-11-19T12:21:06;14.10;99.90
20418;DHT22;10368;51.436;6.774;2023-11-19T12:26:30;14.40;99.90
20418;DHT22;10368;51.436;6.774;2023-11-19T12:28:59;14.80;99.90
20418;DHT22;10368;51.436;6.774;2023-11-19T12:31:26;14.70;99.90
20418;DHT22;10368;51.436;6.774;2023-11-19T12:33:54;14.50;99.90
20418;DHT22;10368;51.436;6.774;2023-11-19T12:36:21;14.10;99.90
20418;DHT22;10368;51.436;6.774;2023-11-19T12:38:48;13.70;99.90
20418;DHT22;10368;51.436;6.774;2023-11-19T12:41:16;13.40;99.90
20418;DHT22;10368;51.436;6.774;2023-11-19T12:43:47;13.30;99.90
20418;DHT22;10368;51.436;6.774;2023-11-19T12:46:21;13.20;99.90
20418;DHT22;10368;51.436;6.774;2023-11-19T12:48:50;13.10;99.90
20418;DHT22;10368;51.436;6.774;2023-11-19T12:51:17;13.10;99.90
20418;DHT22;10368;51.436;6.774;2023-11-19T12:53:51;13.20;99.90
20418;DHT22;10368;51.436;6.774;2023-11-19T12:56:22;13.20;99.90
20418;DHT22;10368;51.436;6.774;2023-11-19T12:58:49;13.00;99.90
20418;DHT22;10368;51.436;6.774;2023-11-19T13:01:18;13.00;99.90
20418;DHT22;10368;51.436;6.774;2023-11-19T13:03:47;12.90;99.90
20418;DHT22;10368;51.436;6.774;2023-11-19T13:06:16;12.80;99.90
20418;DHT22;10368;51.436;6.774;2023-11-19T13:08:45;13.00;99.90
20418;DHT22;10368;51.436;6.774;2023-11-19T13:11:13;13.10;99.90
20418;DHT22;10368;51.436;6.774;2023-11-19T13:14:00;13.30;99.90
20418;DHT22;10368;51.436;6.774;2023-11-19T13:16:27;13.40;99.90
20418;DHT22;10368;51.436;6.774;2023-11-19T13:18:55;13.20;99.90
20418;DHT22;10368;51.436;6.774;2023-11-19T13:21:24;13.10;99.90
20418;DHT22;10368;51.436;6.774;2023-11-19T13:23:51;13.30;99.90
20418;DHT22;10368;51.436;6.774;2023-11-19T13:26:18;13.10;99.90
20418;DHT22;10368;51.436;6.774;2023-11-19T13:28:45;13.10;99.90
20418;DHT22;10368;51.436;6.774;2023-11-19T13:31:12;13.00;99.90
20418;DHT22;10368;51.436;6.774;2023-11-19T13:33:40;13.00;99.90
20418;DHT22;10368;51.436;6.774;2023-11-19T13:36:07;13.10;99.90
20418;DHT22;10368;51.436;6.774;2023-11-19T13:38:35;13.00;99.90
20418;DHT22;10368;51.436;6.774;2023-11-19T13:41:03;13.10;99.90
20418;DHT22;10368;51.436;6.774;2023-11-19T13:43:31;13.00;99.90
20418;DHT22;10368;51.436;6.774;2023-11-19T13:45:58;13.00;99.90
20418;DHT22;10368;51.436;6.774;2023-11-19T13:48:25;13.10;99.90
20418;DHT22;10368;51.436;6.774;2023-11-19T13:50:55;13.10;99.90
20418;DHT22;10368;51.436;6.774;2023-11-19T13:53:23;13.00;99.90
20418;DHT22;10368;51.436;6.774;2023-11-19T13:55:50;13.00;99.90
20418;DHT22;10368;51.436;6.774;2023-11-19T13:58:17;13.00;99.90
20418;DHT22;10368;51.436;6.774;2023-11-19T14:00:44;13.10;99.90
20418;DHT22;10368;51.436;6.774;2023-11-19T14:03:11;13.10;99.90
20418;DHT22;10368;51.436;6.774;2023-11-19T14:05:39;13.10;99.90
20418;DHT22;10368;51.436;6.774;2023-11-19T14:08:08;13.10;99.90
20418;DHT22;10368;51.436;6.774;2023-11-19T14:10:51;12.90;99.90
20418;DHT22;10368;51.436;6.774;2023-11-19T14:13:18;12.70;99.90
20418;DHT22;10368;51.436;6.774;2023-11-19T14:15:45;12.50;99.90
20418;DHT22;10368;51.436;6.774;2023-11-19T14:18:22;12.40;99.90
20418;DHT22;10368;51.436;6.774;2023-11-19T14:20:49;12.20;99.90
20418;DHT22;10368;51.436;6.774;2023-11-19T14:23:18;12.20;99.90
20418;DHT22;10368;51.436;6.774;2023-11-19T14:25:45;12.20;99.90
20418;DHT22;10368;51.436;6.774;2023-11-19T14:28:12;12.20;99.90
20418;DHT22;10368;51.436;6.774;2023-11-19T14:30:39;12.30;99.90
20418;DHT22;10368;51.436;6.774;2023-11-19T14:33:08;12.30;99.90
20418;DHT22;10368;51.436;6.774;2023-11-19T14:35:35;12.30;99.90
20418;DHT22;10368;51.436;6.774;2023-11-19T14:38:02;12.30;99.90
20418;DHT22;10368;51.436;6.774;2023-11-19T14:40:33;12.30;99.90
